Time;durP1;ratioP1;P1;durP2;ratioP2;P2;SDS_P1;SDS_P2;PMS_P1;PMS_P2;Temp;Humidity;BMP_temperature;BMP_pressure;BME280_temperature;BME280_humidity;BME280_pressure;Samples;Min_cycle;Max_cycle;Signal;HPM_P1;HPM_P2
2021/04/02 00:00:01;;;;;;;14.30;6.78;;;15.40;58.30;;;;;;5090904;28;20048;-76
2021/04/02 00:02:30;;;;;;;13.52;6.68;;;15.40;58.70;;;;;;5097026;28;20156;-74
2021/04/02 00:04:57;;;;;;;12.18;6.82;;;15.40;58.90;;;;;;5111958;28;20048;-74
2021/04/02 00:07:23;;;;;;;11.35;5.57;;;15.40;58.80;;;;;;5105940;28;20135;-75
2021/04/02 00:09:50;;;;;;;11.68;6.20;;;15.40;59.10;;;;;;5109987;28;20074;-75
2021/04/02 00:12:17;;;;;;;14.43;5.72;;;15.30;59.40;;;;;;5112152;28;20090;-76
2021/04/02 00:14:43;;;;;;;11.48;6.28;;;15.30;59.10;;;;;;5112584;28;20122;-75
2021/04/02 00:17:10;;;;;;;14.02;5.63;;;15.30;59.20;;;;;;5116768;28;20074;-75
2021/04/02 00:19:38;;;;;;;17.55;6.68;;;15.20;59.50;;;;;;5092678;28;20135;-76
2021/04/02 00:22:05;;;;;;;13.57;6.15;;;15.10;59.80;;;;;;5091736;28;20568;-74
2021/04/02 00:24:31;;;;;;;12.82;6.35;;;15.10;59.90;;;;;;5099063;28;20131;-74
2021/04/02 00:26:58;;;;;;;14.85;6.55;;;15.10;60.10;;;;;;5098981;28;20173;-75
2021/04/02 00:29:25;;;;;;;13.45;6.05;;;15.10;59.90;;;;;;5093317;28;20090;-75
2021/04/02 00:31:52;;;;;;;13.88;5.78;;;15.00;60.50;;;;;;5111992;28;20383;-75
2021/04/02 00:34:18;;;;;;;12.27;6.13;;;15.00;60.30;;;;;;5111859;28;20048;-75
2021/04/02 00:36:46;;;;;;;12.25;5.93;;;15.00;60.40;;;;;;5097920;28;20131;-74
2021/04/02 00:39:13;;;;;;;10.00;4.78;;;14.90;60.50;;;;;;5098386;28;20051;-76
2021/04/02 00:41:40;;;;;;;14.57;7.20;;;14.90;60.00;;;;;;5096359;28;20762;-75
2021/04/02 00:44:06;;;;;;;14.43;6.60;;;14.90;60.10;;;;;;5094061;28;20398;-74
2021/04/02 00:46:33;;;;;;;15.55;7.50;;;14.80;60.40;;;;;;5101586;28;20135;-74
2021/04/02 00:49:00;;;;;;;19.05;8.90;;;14.70;60.70;;;;;;5093066;28;20048;-74
2021/04/02 00:51:29;;;;;;;14.50;6.20;;;14.60;61.30;;;;;;5092881;28;20139;-75
2021/04/02 00:53:57;;;;;;;14.10;6.40;;;14.60;61.80;;;;;;5111473;28;20050;-74
2021/04/02 00:56:25;;;;;;;17.30;7.03;;;14.50;62.30;;;;;;5093282;28;20131;-75
2021/04/02 00:58:51;;;;;;;13.00;6.72;;;14.40;62.50;;;;;;5092917;28;20123;-73
2021/04/02 01:01:18;;;;;;;13.07;6.30;;;14.40;63.20;;;;;;5092880;28;20185;-74
2021/04/02 01:03:47;;;;;;;14.40;6.28;;;14.40;63.60;;;;;;5099285;28;20441;-75
2021/04/02 01:06:19;;;;;;;12.98;5.88;;;14.40;64.00;;;;;;5110234;28;20577;-76
2021/04/02 01:08:45;;;;;;;12.02;6.07;;;14.40;64.20;;;;;;5111159;28;20134;-74
2021/04/02 01:11:18;;;;;;;13.73;6.35;;;14.40;64.70;;;;;;5112514;28;20135;-76
2021/04/02 01:13:49;;;;;;;16.27;7.25;;;14.40;63.40;;;;;;5112945;28;20071;-74
2021/04/02 01:16:19;;;;;;;16.40;6.60;;;14.40;62.80;;;;;;5110947;28;20123;-75
2021/04/02 01:18:53;;;;;;;17.13;8.07;;;14.30;62.80;;;;;;5104382;28;20067;-75
2021/04/02 01:21:27;;;;;;;19.13;10.18;;;14.20;64.00;;;;;;5092777;28;20079;-74
2021/04/02 01:24:42;;;;;;;21.80;10.75;;;14.10;64.20;;;;;;5092663;28;20071;-74
2021/04/02 01:27:26;;;;;;;20.83;9.38;;;14.00;65.00;;;;;;5101562;28;20134;-75
2021/04/02 01:29:56;;;;;;;14.57;8.80;;;13.90;65.70;;;;;;5112805;28;20054;-74
2021/04/02 01:32:27;;;;;;;20.88;9.13;;;13.90;66.30;;;;;;5112542;28;20130;-75
2021/04/02 01:35:06;;;;;;;16.38;7.80;;;13.90;66.30;;;;;;5112779;28;20197;-76
2021/04/02 01:37:37;;;;;;;14.52;7.50;;;13.90;66.60;;;;;;5112497;28;20094;-75
2021/04/02 01:40:09;;;;;;;13.27;6.13;;;13.90;66.40;;;;;;5112503;28;20485;-75
2021/04/02 01:42:38;;;;;;;13.77;6.28;;;13.90;66.70;;;;;;5110910;28;20075;-75
2021/04/02 01:45:10;;;;;;;11.07;6.03;;;13.80;66.80;;;;;;5112483;28;20047;-75
2021/04/02 01:47:38;;;;;;;12.73;6.18;;;13.80;67.10;;;;;;5112541;28;20565;-75
2021/04/02 01:50:08;;;;;;;14.32;6.75;;;13.70;67.40;;;;;;5106795;28;20557;-76
2021/04/02 01:52:36;;;;;;;12.57;6.60;;;13.80;67.30;;;;;;5108792;28;20082;-76
2021/04/02 01:55:06;;;;;;;15.40;7.72;;;13.80;67.40;;;;;;5113372;28;20591;-75
2021/04/02 01:57:33;;;;;;;15.20;8.00;;;13.80;66.40;;;;;;5112253;28;20063;-75
2021/04/02 02:00:10;;;;;;;21.45;10.18;;;13.70;66.70;;;;;;5112029;28;20090;-75
2021/04/02 02:02:37;;;;;;;18.15;9.45;;;13.60;67.30;;;;;;5114925;28;20231;-74
2021/04/02 02:05:07;;;;;;;16.90;7.97;;;13.40;68.90;;;;;;5104422;28;20568;-74
2021/04/02 02:07:37;;;;;;;19.88;9.85;;;13.40;69.30;;;;;;5096335;28;20127;-75
2021/04/02 02:10:06;;;;;;;16.95;9.10;;;13.40;69.80;;;;;;5114619;28;20135;-73
2021/04/02 02:12:34;;;;;;;15.63;7.38;;;13.30;70.20;;;;;;5094857;28;20583;-74
2021/04/02 02:15:02;;;;;;;14.43;7.63;;;13.30;70.70;;;;;;5095111;28;20083;-74
2021/04/02 02:17:31;;;;;;;16.02;7.22;;;13.30;70.80;;;;;;5094990;28;20148;-73
2021/04/02 02:20:07;;;;;;;15.15;7.20;;;13.20;70.90;;;;;;5093955;28;20473;-74
2021/04/02 02:22:34;;;;;;;15.05;7.75;;;13.30;71.10;;;;;;5095072;28;20080;-75
2021/04/02 02:25:03;;;;;;;16.75;7.60;;;13.30;71.30;;;;;;5101140;28;20089;-74
2021/04/02 02:27:29;;;;;;;17.83;8.32;;;13.30;71.70;;;;;;5115198;28;20134;-75
2021/04/02 02:29:56;;;;;;;14.82;7.13;;;13.30;71.70;;;;;;5114899;28;20075;-76
2021/04/02 02:32:23;;;;;;;14.52;8.05;;;13.30;72.30;;;;;;5114949;28;20565;-76
2021/04/02 02:34:51;;;;;;;16.85;8.38;;;13.30;72.00;;;;;;5108077;28;20079;-76
2021/04/02 02:37:18;;;;;;;13.50;7.88;;;13.10;71.60;;;;;;5094520;28;20084;-76
2021/04/02 02:39:45;;;;;;;14.20;7.57;;;13.20;71.50;;;;;;5094386;28;20098;-74
2021/04/02 02:42:12;;;;;;;15.60;8.15;;;13.10;71.60;;;;;;5113176;28;20047;-75
2021/04/02 02:44:39;;;;;;;18.67;8.60;;;13.00;72.40;;;;;;5114007;28;20079;-74
2021/04/02 02:47:07;;;;;;;16.52;8.23;;;13.00;73.20;;;;;;5094827;28;20552;-75
2021/04/02 02:49:34;;;;;;;16.83;7.93;;;12.90;73.40;;;;;;5094120;28;20558;-74
2021/04/02 02:52:03;;;;;;;14.25;7.65;;;12.90;73.50;;;;;;5094141;28;20072;-75
2021/04/02 02:54:31;;;;;;;15.63;7.60;;;12.90;73.70;;;;;;5106270;28;20051;-74
2021/04/02 02:57:00;;;;;;;17.08;8.60;;;12.90;73.80;;;;;;5094593;28;20072;-74
2021/04/02 02:59:29;;;;;;;16.25;7.82;;;12.90;73.40;;;;;;5094188;28;20563;-74
2021/04/02 03:01:57;;;;;;;16.40;7.88;;;12.80;73.70;;;;;;5093267;28;20078;-75
2021/04/02 03:04:26;;;;;;;15.10;8.50;;;12.80;73.90;;;;;;5091818;28;20088;-75
2021/04/02 03:06:54;;;;;;;17.08;8.07;;;12.70;74.40;;;;;;5109599;28;20135;-74
2021/04/02 03:09:24;;;;;;;15.30;7.97;;;12.70;74.70;;;;;;5109765;28;20098;-76
2021/04/02 03:11:51;;;;;;;19.35;8.15;;;12.70;75.40;;;;;;5103540;28;20050;-75
2021/04/02 03:14:21;;;;;;;19.92;10.18;;;12.70;76.00;;;;;;5094601;28;20044;-75
2021/04/02 03:16:51;;;;;;;15.48;8.55;;;12.70;74.90;;;;;;5092746;28;20143;-75
2021/04/02 03:19:22;;;;;;;17.98;9.73;;;12.50;73.70;;;;;;5089980;28;20490;-75
2021/04/02 03:21:50;;;;;;;22.33;11.57;;;12.60;73.90;;;;;;5090052;28;20086;-75
2021/04/02 03:24:17;;;;;;;25.00;10.95;;;12.40;75.80;;;;;;5090264;28;20132;-75
2021/04/02 03:26:51;;;;;;;17.40;8.60;;;12.30;76.90;;;;;;5104641;28;20180;-76
2021/04/02 03:29:18;;;;;;;15.32;8.63;;;12.20;77.80;;;;;;5110439;28;20046;-75
2021/04/02 03:31:47;;;;;;;20.48;9.07;;;12.10;79.20;;;;;;5110368;28;20500;-75
2021/04/02 03:34:16;;;;;;;19.05;8.82;;;12.10;79.00;;;;;;5110272;28;20656;-75
2021/04/02 03:36:46;;;;;;;18.90;9.15;;;12.10;79.60;;;;;;5108778;28;20059;-75
2021/04/02 03:39:21;;;;;;;16.15;8.27;;;12.10;80.00;;;;;;5110514;28;20102;-75
2021/04/02 03:41:54;;;;;;;15.90;8.20;;;12.10;80.70;;;;;;5109980;28;20050;-75
2021/04/02 03:44:25;;;;;;;18.10;9.38;;;12.10;80.60;;;;;;5098434;28;20105;-75
2021/04/02 03:46:54;;;;;;;16.83;9.18;;;12.10;80.40;;;;;;5106783;28;20135;-75
2021/04/02 03:49:27;;;;;;;16.42;8.23;;;12.10;80.50;;;;;;5110042;28;20051;-75
2021/04/02 03:51:59;;;;;;;15.93;8.75;;;12.10;80.50;;;;;;5110385;28;20539;-76
2021/04/02 03:54:30;;;;;;;16.88;8.30;;;12.10;80.60;;;;;;5110064;28;20531;-76
2021/04/02 03:57:00;;;;;;;16.50;8.45;;;12.10;80.90;;;;;;5092574;28;20548;-74
2021/04/02 03:59:30;;;;;;;17.42;9.32;;;12.10;81.30;;;;;;5089963;28;20048;-75
2021/04/02 04:01:56;;;;;;;18.83;9.98;;;12.10;81.90;;;;;;5092983;28;20130;-77
2021/04/02 04:04:27;;;;;;;19.48;10.55;;;12.10;82.40;;;;;;5093125;28;20107;-76
2021/04/02 04:06:58;;;;;;;20.55;10.02;;;12.10;83.30;;;;;;5109732;28;20126;-75
2021/04/02 04:09:29;;;;;;;17.55;9.95;;;12.10;82.80;;;;;;5113325;28;20135;-75
2021/04/02 04:11:58;;;;;;;19.30;10.05;;;12.10;83.50;;;;;;5113296;28;20524;-76
2021/04/02 04:14:26;;;;;;;17.95;10.00;;;12.10;83.30;;;;;;5113432;28;20071;-74
2021/04/02 04:16:55;;;;;;;16.20;9.48;;;12.20;83.40;;;;;;5108126;28;20119;-75
2021/04/02 04:19:23;;;;;;;16.13;8.60;;;12.20;83.80;;;;;;5109632;28;20079;-74
2021/04/02 04:21:52;;;;;;;16.10;8.30;;;12.10;83.00;;;;;;5115281;28;20079;-75
2021/04/02 04:24:21;;;;;;;17.15;9.13;;;12.10;83.00;;;;;;5117345;28;20116;-75
2021/04/02 04:26:49;;;;;;;17.38;9.90;;;12.10;83.10;;;;;;5115703;28;20082;-74
2021/04/02 04:29:20;;;;;;;14.45;9.20;;;12.10;83.10;;;;;;5117491;28;20083;-76
2021/04/02 04:31:48;;;;;;;18.63;9.45;;;12.00;83.40;;;;;;5117587;28;20083;-75
2021/04/02 04:34:15;;;;;;;15.57;9.20;;;12.00;83.50;;;;;;5106008;28;20102;-74
2021/04/02 04:36:44;;;;;;;18.13;9.20;;;12.10;84.30;;;;;;5111036;28;20122;-74
2021/04/02 04:39:12;;;;;;;17.05;9.82;;;12.00;83.80;;;;;;5117470;28;20051;-74
2021/04/02 04:41:40;;;;;;;18.92;9.95;;;12.00;83.70;;;;;;5103633;28;20083;-75
2021/04/02 04:44:08;;;;;;;21.48;10.60;;;12.00;84.10;;;;;;5108873;28;20540;-75
2021/04/02 04:46:36;;;;;;;19.27;10.73;;;12.00;83.90;;;;;;5103579;28;20084;-74
2021/04/02 04:49:04;;;;;;;19.85;10.70;;;11.90;84.20;;;;;;5096619;28;20102;-74
2021/04/02 04:51:34;;;;;;;18.48;9.98;;;11.80;84.60;;;;;;5097485;28;20079;-74
2021/04/02 04:54:01;;;;;;;16.77;9.50;;;11.80;85.00;;;;;;5096633;28;20123;-75
2021/04/02 04:56:30;;;;;;;19.70;9.77;;;11.70;85.60;;;;;;5108139;28;20051;-74
2021/04/02 04:59:02;;;;;;;17.70;9.88;;;11.60;86.40;;;;;;5116987;28;20544;-74
2021/04/02 05:01:35;;;;;;;16.50;8.55;;;11.60;85.80;;;;;;5116809;28;20082;-73
2021/04/02 05:04:03;;;;;;;15.70;8.23;;;11.40;86.70;;;;;;5111108;28;20454;-74
2021/04/02 05:06:33;;;;;;;14.15;7.68;;;11.40;87.50;;;;;;5108043;28;20130;-74
2021/04/02 05:09:02;;;;;;;14.30;7.70;;;11.30;88.60;;;;;;5116670;28;20078;-73
2021/04/02 05:11:31;;;;;;;16.20;9.20;;;11.30;89.00;;;;;;5116641;28;20510;-74
2021/04/02 05:13:59;;;;;;;15.10;9.05;;;11.40;89.20;;;;;;5116616;28;20071;-74
2021/04/02 05:16:27;;;;;;;15.90;9.27;;;11.40;89.30;;;;;;5108034;28;20075;-75
2021/04/02 05:18:57;;;;;;;14.40;8.35;;;11.40;89.40;;;;;;5101678;28;20097;-74
2021/04/02 05:21:24;;;;;;;15.18;7.75;;;11.40;89.30;;;;;;5116322;28;20461;-74
2021/04/02 05:23:53;;;;;;;13.93;6.95;;;11.40;89.00;;;;;;5106817;28;20047;-74
2021/04/02 05:26:21;;;;;;;12.77;7.65;;;11.40;87.70;;;;;;5105106;28;20097;-78
2021/04/02 05:28:49;;;;;;;15.45;8.65;;;11.40;88.10;;;;;;5116190;28;20075;-77
2021/04/02 05:31:17;;;;;;;17.63;8.63;;;11.40;88.40;;;;;;5105510;28;20044;-77
2021/04/02 05:33:44;;;;;;;13.70;8.50;;;11.40;88.60;;;;;;5097030;28;20501;-78
2021/04/02 05:36:11;;;;;;;12.48;7.45;;;11.50;89.40;;;;;;5105289;28;20071;-79
2021/04/02 05:38:38;;;;;;;15.85;9.55;;;11.50;88.40;;;;;;5103362;28;20091;-79
2021/04/02 05:41:10;;;;;;;17.70;9.57;;;11.50;87.90;;;;;;5101472;28;20072;-78
2021/04/02 05:43:43;;;;;;;26.90;13.27;;;11.60;87.70;;;;;;5095519;28;20080;-79
2021/04/02 05:46:13;;;;;;;29.08;15.23;;;11.50;87.60;;;;;;5095333;28;20083;-78
2021/04/02 05:48:42;;;;;;;32.03;17.52;;;11.50;87.90;;;;;;5112212;28;20086;-78
2021/04/02 05:51:12;;;;;;;19.55;10.77;;;11.50;87.90;;;;;;5095910;28;20062;-79
2021/04/02 05:53:39;;;;;;;12.73;6.60;;;11.50;87.70;;;;;;5095330;28;20468;-77
2021/04/02 05:56:07;;;;;;;12.40;6.25;;;11.50;86.90;;;;;;5096061;28;20083;-79
2021/04/02 05:58:34;;;;;;;14.90;7.05;;;11.40;86.50;;;;;;5103975;28;20050;-79
2021/04/02 06:01:00;;;;;;;10.80;6.55;;;11.20;87.00;;;;;;5095312;28;20439;-78
2021/04/02 06:03:29;;;;;;;10.23;5.88;;;11.20;87.10;;;;;;5095251;28;20123;-78
2021/04/02 06:05:55;;;;;;;12.98;5.63;;;11.20;87.60;;;;;;5101950;28;20051;-78
2021/04/02 06:08:24;;;;;;;11.95;6.50;;;11.20;87.00;;;;;;5094911;28;20106;-80
2021/04/02 06:10:51;;;;;;;11.38;6.40;;;11.20;87.20;;;;;;5105826;28;20047;-79
2021/04/02 06:13:18;;;;;;;11.15;6.90;;;11.20;87.00;;;;;;5109914;28;20074;-78
2021/04/02 06:15:45;;;;;;;12.68;6.57;;;11.30;85.60;;;;;;5115343;28;20079;-79
2021/04/02 06:18:13;;;;;;;11.80;6.20;;;11.20;85.10;;;;;;5103720;28;20062;-77
2021/04/02 06:20:43;;;;;;;11.98;6.32;;;11.20;86.00;;;;;;5103123;28;20087;-77
2021/04/02 06:23:14;;;;;;;10.55;5.60;;;11.20;85.80;;;;;;5106629;28;20523;-77
2021/04/02 06:25:48;;;;;;;12.93;6.53;;;11.30;86.60;;;;;;5107799;28;20078;-78
2021/04/02 06:28:23;;;;;;;11.75;6.88;;;11.30;85.50;;;;;;5111903;28;20079;-77
2021/04/02 06:30:57;;;;;;;11.02;6.30;;;11.30;84.80;;;;;;5100472;28;20047;-76
2021/04/02 06:33:32;;;;;;;11.10;6.60;;;11.40;85.00;;;;;;5094326;28;20091;-76
2021/04/02 06:35:59;;;;;;;13.55;7.25;;;11.30;85.30;;;;;;5094715;28;20048;-79
2021/04/02 06:38:31;;;;;;;10.90;6.45;;;11.40;85.00;;;;;;5098903;28;20082;-79
2021/04/02 06:41:01;;;;;;;14.52;7.40;;;11.30;85.40;;;;;;5108172;28;20267;-79
2021/04/02 06:43:41;;;;;;;14.88;7.47;;;11.40;85.90;;;;;;5115256;28;20039;-80
2021/04/02 06:46:09;;;;;;;11.55;6.80;;;11.40;86.10;;;;;;5098780;28;20538;-78
2021/04/02 06:48:36;;;;;;;12.52;7.40;;;11.50;86.30;;;;;;5094268;28;20056;-79
2021/04/02 06:51:04;;;;;;;13.40;7.85;;;11.50;85.90;;;;;;5099475;28;20097;-78
2021/04/02 06:53:33;;;;;;;11.15;6.43;;;11.50;85.30;;;;;;5114701;28;20083;-79
2021/04/02 06:56:03;;;;;;;10.20;6.25;;;11.60;84.90;;;;;;5097498;28;20135;-78
2021/04/02 06:58:30;;;;;;;11.05;6.30;;;11.60;84.30;;;;;;5094014;28;20473;-78
2021/04/02 07:01:03;;;;;;;10.40;6.45;;;11.60;83.90;;;;;;5093893;28;20504;-78
2021/04/02 07:03:32;;;;;;;9.98;6.05;;;11.60;84.20;;;;;;5102314;28;20089;-79
2021/04/02 07:06:00;;;;;;;11.88;6.50;;;11.60;83.80;;;;;;5114168;28;20055;-79
2021/04/02 07:08:28;;;;;;;13.73;6.65;;;11.70;83.40;;;;;;5110831;28;20486;-79
2021/04/02 07:10:57;;;;;;;10.68;6.07;;;11.70;82.80;;;;;;5097586;28;20055;-78
2021/04/02 07:13:27;;;;;;;13.10;6.45;;;11.80;82.20;;;;;;5094025;28;20131;-79
2021/04/02 07:15:53;;;;;;;12.88;7.13;;;11.90;82.00;;;;;;5094401;28;20497;-80
2021/04/02 07:18:20;;;;;;;14.00;7.32;;;11.90;81.20;;;;;;5111116;28;20116;-81
2021/04/02 07:20:48;;;;;;;10.07;6.30;;;11.90;80.90;;;;;;5114027;28;20132;-80
2021/04/02 07:23:16;;;;;;;11.68;7.10;;;11.80;79.20;;;;;;5112023;28;20043;-80
2021/04/02 07:25:43;;;;;;;12.02;7.07;;;11.80;79.60;;;;;;5101568;28;20054;-79
2021/04/02 07:28:11;;;;;;;12.00;6.63;;;11.80;80.30;;;;;;5096548;28;20410;-79
2021/04/02 07:30:39;;;;;;;11.65;6.10;;;11.90;80.00;;;;;;5097200;28;20096;-79
2021/04/02 07:33:09;;;;;;;9.35;5.88;;;11.90;79.70;;;;;;5112280;28;20071;-79
2021/04/02 07:35:37;;;;;;;11.02;5.80;;;12.00;79.60;;;;;;5103901;28;20071;-78
2021/04/02 07:38:10;;;;;;;11.02;6.05;;;11.90;80.20;;;;;;5102843;28;20083;-78
2021/04/02 07:40:36;;;;;;;10.45;5.93;;;12.00;78.40;;;;;;5107043;28;20059;-78
2021/04/02 07:43:08;;;;;;;9.50;6.20;;;12.00;79.50;;;;;;5095941;28;20055;-80
2021/04/02 07:45:37;;;;;;;9.10;6.00;;;12.00;78.90;;;;;;5099728;28;20080;-78
2021/04/02 07:48:14;;;;;;;9.73;5.70;;;12.10;79.70;;;;;;5095632;28;20138;-80
2021/04/02 07:50:47;;;;;;;10.23;5.68;;;12.20;79.10;;;;;;5108964;28;20142;-77
2021/04/02 07:53:19;;;;;;;11.02;6.05;;;12.30;78.70;;;;;;5098221;28;20493;-80
2021/04/02 07:55:54;;;;;;;9.30;5.88;;;12.30;77.60;;;;;;5084125;28;20044;-78
2021/04/02 07:58:24;;;;;;;10.60;6.85;;;12.30;77.60;;;;;;5096041;28;20086;-78
2021/04/02 08:00:54;;;;;;;11.82;6.90;;;12.30;76.40;;;;;;5102341;28;20071;-79
2021/04/02 08:03:25;;;;;;;9.48;6.05;;;12.40;75.90;;;;;;5102462;28;20100;-79
2021/04/02 08:06:06;;;;;;;10.45;5.82;;;12.40;76.90;;;;;;5093159;28;20506;-79
2021/04/02 08:08:44;;;;;;;9.52;5.85;;;12.40;77.20;;;;;;5111650;28;20044;-79
2021/04/02 08:11:16;;;;;;;10.35;6.07;;;12.40;76.80;;;;;;5114007;28;20062;-78
2021/04/02 08:13:59;;;;;;;10.85;6.60;;;12.40;77.10;;;;;;5114035;28;20063;-78
2021/04/02 08:16:53;;;;;;;8.70;5.95;;;12.40;76.80;;;;;;5113710;28;20046;-79
2021/04/02 08:19:27;;;;;;;10.23;6.13;;;12.40;77.50;;;;;;5112574;28;20052;-79
2021/04/02 08:21:57;;;;;;;11.98;6.60;;;12.40;76.30;;;;;;5113635;28;20071;-78
2021/04/02 08:24:26;;;;;;;15.40;9.02;;;12.50;77.00;;;;;;5113964;28;20051;-78
2021/04/02 08:26:54;;;;;;;11.05;7.07;;;12.50;77.00;;;;;;5111671;28;20526;-80
2021/04/02 08:29:24;;;;;;;8.68;5.75;;;12.50;75.40;;;;;;5121047;28;20514;-79
2021/04/02 08:31:54;;;;;;;9.63;6.18;;;12.60;76.30;;;;;;5075066;28;20401;-79
2021/04/02 08:34:24;;;;;;;10.57;6.13;;;12.60;75.70;;;;;;5094149;28;20055;-78
2021/04/02 08:36:53;;;;;;;10.63;6.07;;;12.60;75.70;;;;;;5093229;28;20131;-79
2021/04/02 08:39:23;;;;;;;8.80;5.85;;;12.50;76.20;;;;;;5093191;28;20048;-79
2021/04/02 08:41:51;;;;;;;10.98;6.55;;;12.60;76.20;;;;;;5103670;28;20135;-78
2021/04/02 08:44:17;;;;;;;9.23;6.22;;;12.60;76.20;;;;;;5094289;28;20082;-81
2021/04/02 08:46:46;;;;;;;9.23;5.90;;;12.60;75.30;;;;;;5092847;28;20135;-80
2021/04/02 08:49:15;;;;;;;9.23;5.53;;;12.70;74.50;;;;;;5093183;28;20136;-80
2021/04/02 08:51:48;;;;;;;10.68;6.25;;;12.60;75.60;;;;;;5093258;28;20048;-80
2021/04/02 08:54:18;;;;;;;9.13;5.65;;;12.70;73.90;;;;;;5093243;28;20072;-78
2021/04/02 08:56:46;;;;;;;10.02;5.55;;;12.70;74.40;;;;;;5092986;28;20075;-79
2021/04/02 08:59:13;;;;;;;8.60;5.88;;;12.70;74.90;;;;;;5092819;28;20131;-78
2021/04/02 09:01:43;;;;;;;9.30;5.70;;;12.80;74.60;;;;;;5100466;28;20075;-78
2021/04/02 09:04:11;;;;;;;10.75;5.40;;;12.80;75.10;;;;;;5095695;28;20958;-76
2021/04/02 09:06:40;;;;;;;9.82;6.13;;;12.80;75.20;;;;;;5108695;28;20043;-79
2021/04/02 09:09:18;;;;;;;11.32;6.18;;;12.90;73.90;;;;;;5115466;28;20409;-74
2021/04/02 09:11:47;;;;;;;10.60;6.45;;;12.90;73.80;;;;;;5117163;28;20047;-76
2021/04/02 09:14:15;;;;;;;11.48;6.10;;;12.90;72.60;;;;;;5117090;28;20086;-75
2021/04/02 09:16:43;;;;;;;9.35;5.80;;;12.80;72.80;;;;;;5116920;28;20131;-76
2021/04/02 09:19:12;;;;;;;9.77;5.40;;;12.80;73.30;;;;;;5116651;28;20075;-75
2021/04/02 09:21:39;;;;;;;8.85;5.47;;;12.90;73.40;;;;;;5098456;28;20047;-75
2021/04/02 09:24:07;;;;;;;11.82;6.57;;;13.00;73.90;;;;;;5116425;28;20140;-76
2021/04/02 09:26:39;;;;;;;8.05;5.57;;;13.10;71.40;;;;;;5116774;28;20481;-75
2021/04/02 09:29:06;;;;;;;10.55;6.22;;;13.10;71.00;;;;;;5116464;28;20054;-75
2021/04/02 09:31:35;;;;;;;10.52;5.93;;;13.10;71.20;;;;;;5098243;28;20528;-76
2021/04/02 09:34:04;;;;;;;8.02;5.85;;;13.20;70.70;;;;;;5116668;28;20104;-75
2021/04/02 09:36:33;;;;;;;9.38;6.03;;;13.40;70.10;;;;;;5118030;28;20093;-74
2021/04/02 09:39:07;;;;;;;9.90;6.25;;;13.40;69.80;;;;;;5120047;28;20713;-76
2021/04/02 09:41:36;;;;;;;11.20;6.05;;;13.40;70.30;;;;;;5118699;28;20075;-74
2021/04/02 09:44:10;;;;;;;9.25;5.68;;;13.50;70.00;;;;;;5119521;28;20048;-74
2021/04/02 09:46:39;;;;;;;10.15;6.22;;;13.60;69.40;;;;;;5121337;28;20048;-76
2021/04/02 09:49:09;;;;;;;8.98;5.85;;;13.70;69.00;;;;;;5120927;28;20568;-75
2021/04/02 09:51:40;;;;;;;9.93;6.40;;;13.80;68.20;;;;;;5122552;28;20039;-75
2021/04/02 09:54:07;;;;;;;11.27;6.88;;;14.00;67.30;;;;;;5122424;28;20071;-74
2021/04/02 09:56:35;;;;;;;10.85;6.60;;;14.10;67.00;;;;;;5119190;28;20182;-74
2021/04/02 09:59:03;;;;;;;13.98;10.15;;;14.00;66.50;;;;;;5115815;28;20047;-76
2021/04/02 10:01:31;;;;;;;15.60;10.40;;;14.10;67.00;;;;;;5097895;28;20046;-74
2021/04/02 10:03:58;;;;;;;14.05;8.45;;;14.10;66.70;;;;;;5107381;28;20513;-75
2021/04/02 10:06:24;;;;;;;12.55;7.90;;;14.30;66.40;;;;;;5101551;28;20055;-76
2021/04/02 10:08:51;;;;;;;13.13;8.27;;;14.40;65.80;;;;;;5106634;28;20070;-77
2021/04/02 10:11:18;;;;;;;10.93;7.20;;;14.60;65.40;;;;;;5100145;28;20067;-75
2021/04/02 10:13:44;;;;;;;10.65;6.95;;;14.60;64.60;;;;;;5097196;28;20091;-76
2021/04/02 10:16:12;;;;;;;12.50;7.53;;;14.60;64.00;;;;;;5097169;28;20084;-76
2021/04/02 10:18:39;;;;;;;11.40;7.13;;;14.60;63.80;;;;;;5097441;28;20136;-75
2021/04/02 10:21:07;;;;;;;10.63;6.43;;;14.60;64.80;;;;;;5100296;28;20150;-75
2021/04/02 10:23:34;;;;;;;10.43;6.88;;;14.70;64.10;;;;;;5096296;28;20048;-77
2021/04/02 10:26:01;;;;;;;9.85;6.78;;;14.80;64.00;;;;;;5097695;28;20083;-76
2021/04/02 10:28:28;;;;;;;11.85;7.18;;;14.90;63.10;;;;;;5096058;28;20087;-76
2021/04/02 10:30:55;;;;;;;10.40;6.53;;;14.80;62.90;;;;;;5095612;28;20500;-77
2021/04/02 10:33:22;;;;;;;9.88;6.20;;;14.80;63.10;;;;;;5095962;28;20071;-74
2021/04/02 10:35:49;;;;;;;9.90;6.57;;;14.90;62.90;;;;;;5100217;28;20044;-75
2021/04/02 10:38:16;;;;;;;10.75;6.60;;;14.90;63.90;;;;;;5105480;28;20055;-76
2021/04/02 10:40:44;;;;;;;10.88;7.55;;;15.00;62.40;;;;;;5106824;28;20051;-75
2021/04/02 10:43:11;;;;;;;10.68;7.40;;;15.10;61.90;;;;;;5106552;28;20055;-76
2021/04/02 10:45:37;;;;;;;9.25;6.20;;;15.00;61.00;;;;;;5097351;28;20516;-75
2021/04/02 10:48:06;;;;;;;11.32;7.38;;;15.00;62.50;;;;;;5103451;28;20067;-75
2021/04/02 10:50:33;;;;;;;10.23;6.75;;;15.00;61.70;;;;;;5096366;28;20086;-75
2021/04/02 10:53:00;;;;;;;10.95;6.60;;;14.90;62.40;;;;;;5095640;28;20083;-75
2021/04/02 10:55:27;;;;;;;9.05;6.72;;;14.90;63.70;;;;;;5105897;28;20072;-76
2021/04/02 10:57:54;;;;;;;11.95;6.90;;;14.90;63.80;;;;;;5103998;28;20072;-75
2021/04/02 11:00:23;;;;;;;10.13;7.22;;;14.80;64.10;;;;;;5114155;28;20075;-75
2021/04/02 11:02:50;;;;;;;9.65;6.88;;;14.80;63.60;;;;;;5095177;28;20047;-78
2021/04/02 11:05:18;;;;;;;10.52;7.13;;;14.80;65.10;;;;;;5094483;28;20056;-79
2021/04/02 11:07:45;;;;;;;10.23;6.28;;;14.90;64.00;;;;;;5097145;28;20135;-77
2021/04/02 11:10:14;;;;;;;9.43;5.93;;;14.90;64.00;;;;;;5096957;28;20132;-75
2021/04/02 11:12:41;;;;;;;9.23;6.38;;;15.10;64.40;;;;;;5110356;28;20135;-79
2021/04/02 11:15:12;;;;;;;10.60;6.82;;;15.10;62.90;;;;;;5107631;28;20100;-79
2021/04/02 11:17:41;;;;;;;8.40;5.90;;;15.20;61.80;;;;;;5099534;28;20051;-74
2021/04/02 11:20:09;;;;;;;8.98;6.60;;;15.30;62.10;;;;;;5098503;28;20090;-77
2021/04/02 11:22:36;;;;;;;9.38;6.60;;;15.40;60.80;;;;;;5090790;28;20465;-76
2021/04/02 11:25:06;;;;;;;9.82;7.05;;;15.40;61.00;;;;;;5090901;28;20544;-77
2021/04/02 11:27:33;;;;;;;9.98;6.47;;;15.40;60.90;;;;;;5108714;28;20079;-75
2021/04/02 11:30:00;;;;;;;10.80;6.93;;;15.50;59.40;;;;;;5094877;28;20076;-77
2021/04/02 11:32:26;;;;;;;10.55;7.50;;;15.50;58.30;;;;;;5090304;28;20087;-75
2021/04/02 11:34:53;;;;;;;9.27;6.95;;;15.40;58.20;;;;;;5095862;28;20480;-76
2021/04/02 11:37:20;;;;;;;9.32;6.60;;;15.40;57.50;;;;;;5099958;28;20556;-77
2021/04/02 11:39:47;;;;;;;11.07;7.25;;;15.40;57.20;;;;;;5106139;28;20135;-76
2021/04/02 11:42:14;;;;;;;11.05;7.30;;;15.40;57.10;;;;;;5110030;28;20086;-77
2021/04/02 11:44:41;;;;;;;8.65;5.53;;;15.50;55.00;;;;;;5103904;28;20147;-76
2021/04/02 11:47:09;;;;;;;8.63;6.05;;;15.40;56.70;;;;;;5092937;28;20123;-77
2021/04/02 11:49:36;;;;;;;10.68;7.32;;;15.40;56.70;;;;;;5101244;28;20079;-75
2021/04/02 11:52:04;;;;;;;9.95;5.93;;;15.40;55.20;;;;;;5091346;28;20088;-75
2021/04/02 11:54:31;;;;;;;7.22;5.57;;;15.40;54.50;;;;;;5093700;28;20066;-75
2021/04/02 11:56:57;;;;;;;8.00;5.28;;;15.50;54.20;;;;;;5108888;28;20777;-75
2021/04/02 11:59:25;;;;;;;8.05;5.68;;;15.50;54.50;;;;;;5091449;28;20143;-74
2021/04/02 12:01:52;;;;;;;10.05;6.90;;;15.60;53.80;;;;;;5090337;28;20126;-78
2021/04/02 12:04:19;;;;;;;10.95;7.97;;;15.60;54.00;;;;;;5088632;28;20131;-78
2021/04/02 12:06:46;;;;;;;10.48;6.15;;;15.70;54.20;;;;;;5103487;28;20493;-77
2021/04/02 12:09:13;;;;;;;9.50;6.40;;;15.70;54.10;;;;;;5111564;28;20078;-78
2021/04/02 12:11:39;;;;;;;10.02;6.97;;;15.70;52.60;;;;;;5110100;28;20072;-77
2021/04/02 12:14:07;;;;;;;9.27;6.68;;;15.80;52.60;;;;;;5103572;28;20094;-76
2021/04/02 12:16:35;;;;;;;9.93;6.35;;;15.80;53.50;;;;;;5099919;28;20485;-77
2021/04/02 12:19:03;;;;;;;8.18;5.93;;;15.90;53.40;;;;;;5093022;28;20128;-78
2021/04/02 12:21:30;;;;;;;7.88;5.07;;;16.00;52.90;;;;;;5092673;28;20088;-80
2021/04/02 12:23:58;;;;;;;7.90;5.65;;;16.10;53.50;;;;;;5096659;28;20071;-77
2021/04/02 12:26:24;;;;;;;9.73;5.93;;;16.30;52.90;;;;;;5101566;28;20041;-79
2021/04/02 12:28:51;;;;;;;10.27;6.35;;;16.40;51.60;;;;;;5092985;28;20111;-78
2021/04/02 12:31:19;;;;;;;8.18;5.15;;;16.50;50.20;;;;;;5110306;28;20514;-78
2021/04/02 12:33:47;;;;;;;9.63;6.40;;;16.50;50.70;;;;;;5113016;28;20046;-78
2021/04/02 12:36:13;;;;;;;8.57;5.72;;;16.80;49.40;;;;;;5101107;28;20079;-78
2021/04/02 12:38:41;;;;;;;9.50;5.93;;;16.80;50.10;;;;;;5098270;28;20083;-78
2021/04/02 12:41:08;;;;;;;7.90;5.82;;;16.90;49.80;;;;;;5112799;28;20453;-79
2021/04/02 12:43:35;;;;;;;9.23;6.78;;;17.00;49.70;;;;;;5116328;28;20400;-79
2021/04/02 12:46:02;;;;;;;8.48;6.03;;;17.10;48.20;;;;;;5109873;28;20040;-78